ITY94 KDCA-KLGA
Flight info
| Callsign | ITY94 |
|---|---|
| Flight time | 0h 40m |
| Altitude | 23000 |
| Route | DOCTR5 AGARD SPEAK PROUD2 |
| Aircraft | A21N/M-SDE2E3FGHIRWXY/LB1 |
Departure
| Time | 2026-04-22 10:06 |
|---|---|
| Airport | Ronald Reagan Washington National Airport (KDCA) |
Arrival
| Time | 2026-04-22 10:47 |
|---|---|
| Airport | LaGuardia Airport (KLGA) |
| Time | Latitude | Longitude | Altitude | Speed | Heading |
|---|---|---|---|---|---|
| 2026-04-22 09:42 | 38.85146 | -77.04095 | 27 ft | 0 kts | 320° |
| 2026-04-22 09:43 | 38.85235 | -77.04063 | 27 ft | 0 kts | 260° |
| 2026-04-22 09:59 | 38.85236 | -77.04056 | 27 ft | 4 kts | 261° |
| 2026-04-22 09:59 | 38.85237 | -77.04022 | 27 ft | 4 kts | 282° |
| 2026-04-22 09:59 | 38.85227 | -77.03993 | 27 ft | 4 kts | 320° |
| 2026-04-22 09:59 | 38.85211 | -77.03983 | 27 ft | 1 kts | 355° |
| 2026-04-22 10:00 | 38.85208 | -77.03982 | 27 ft | 0 kts | 355° |
| 2026-04-22 10:02 | 38.85218 | -77.03983 | 27 ft | 5 kts | 355° |
| 2026-04-22 10:02 | 38.85272 | -77.03989 | 27 ft | 11 kts | 355° |
| 2026-04-22 10:03 | 38.85368 | -77.03998 | 27 ft | 16 kts | 355° |
| 2026-04-22 10:03 | 38.85494 | -77.04013 | 27 ft | 20 kts | 350° |
| 2026-04-22 10:03 | 38.85634 | -77.04041 | 27 ft | 20 kts | 355° |
| 2026-04-22 10:03 | 38.85763 | -77.04062 | 29 ft | 15 kts | 356° |
| 2026-04-22 10:04 | 38.85869 | -77.04073 | 28 ft | 14 kts | 343° |
| 2026-04-22 10:04 | 38.85939 | -77.04103 | 28 ft | 2 kts | 296° |
| 2026-04-22 10:04 | 38.85935 | -77.04110 | 28 ft | 1 kts | 220° |
| 2026-04-22 10:04 | 38.85928 | -77.04107 | 28 ft | 2 kts | 149° |
| 2026-04-22 10:05 | 38.85924 | -77.04035 | 27 ft | 11 kts | 89° |
| 2026-04-22 10:05 | 38.85917 | -77.03939 | 28 ft | 10 kts | 105° |
| 2026-04-22 10:05 | 38.85888 | -77.03861 | 29 ft | 8 kts | 140° |
| 2026-04-22 10:05 | 38.85874 | -77.03852 | 29 ft | 0 kts | 167° |
| 2026-04-22 10:06 | 38.85702 | -77.03833 | 27 ft | 57 kts | 176° |
| 2026-04-22 10:06 | 38.85087 | -77.03769 | 27 ft | 121 kts | 175° |
| 2026-04-22 10:06 | 38.84072 | -77.03650 | 167 ft | 165 kts | 178° |
| 2026-04-22 10:06 | 38.82896 | -77.03537 | 677 ft | 168 kts | 179° |
| 2026-04-22 10:07 | 38.81765 | -77.03426 | 1516 ft | 162 kts | 180° |
| 2026-04-22 10:07 | 38.80607 | -77.02968 | 1987 ft | 191 kts | 144° |
| 2026-04-22 10:07 | 38.79908 | -77.01408 | 2214 ft | 221 kts | 98° |
| 2026-04-22 10:07 | 38.80214 | -76.99437 | 2469 ft | 242 kts | 57° |
| 2026-04-22 10:08 | 38.81380 | -76.97819 | 2946 ft | 252 kts | 36° |
| 2026-04-22 10:08 | 38.82813 | -76.96498 | 3700 ft | 257 kts | 34° |
| 2026-04-22 10:08 | 38.83993 | -76.94671 | 4314 ft | 276 kts | 54° |
| 2026-04-22 10:08 | 38.84364 | -76.93811 | 4604 ft | 281 kts | 59° |
| 2026-04-22 10:09 | 38.84463 | -76.93550 | 4701 ft | 283 kts | 59° |
| 2026-04-22 10:09 | 38.84587 | -76.93204 | 4818 ft | 285 kts | 61° |
| 2026-04-22 10:10 | 38.84885 | -76.92274 | 5101 ft | 289 kts | 64° |
| 2026-04-22 10:10 | 38.85519 | -76.89789 | 5706 ft | 296 kts | 69° |
| 2026-04-22 10:10 | 38.86049 | -76.87223 | 5948 ft | 298 kts | 71° |
| 2026-04-22 10:10 | 38.86549 | -76.84634 | 5971 ft | 298 kts | 71° |
| 2026-04-22 10:11 | 38.87061 | -76.82060 | 6217 ft | 299 kts | 70° |
| 2026-04-22 10:11 | 38.87600 | -76.79503 | 6954 ft | 303 kts | 69° |
| 2026-04-22 10:11 | 38.88175 | -76.76904 | 7946 ft | 302 kts | 70° |
| 2026-04-22 10:11 | 38.88767 | -76.74315 | 8915 ft | 302 kts | 70° |
| 2026-04-22 10:12 | 38.89375 | -76.71713 | 9821 ft | 306 kts | 71° |
| 2026-04-22 10:12 | 38.89998 | -76.69069 | 10459 ft | 318 kts | 71° |
| 2026-04-22 10:12 | 38.90666 | -76.66249 | 10760 ft | 341 kts | 71° |
| 2026-04-22 10:12 | 38.91377 | -76.63244 | 11064 ft | 363 kts | 71° |
| 2026-04-22 10:13 | 38.92127 | -76.60053 | 11397 ft | 382 kts | 72° |
| 2026-04-22 10:13 | 38.92900 | -76.56743 | 11980 ft | 392 kts | 72° |
| 2026-04-22 10:13 | 38.93686 | -76.53360 | 12647 ft | 399 kts | 72° |
| 2026-04-22 10:13 | 38.94475 | -76.49958 | 13345 ft | 405 kts | 72° |
| 2026-04-22 10:14 | 38.95283 | -76.46469 | 14028 ft | 411 kts | 72° |
| 2026-04-22 10:14 | 38.96106 | -76.42913 | 14644 ft | 417 kts | 72° |
| 2026-04-22 10:14 | 38.96936 | -76.39322 | 15298 ft | 421 kts | 72° |
| 2026-04-22 10:14 | 38.97775 | -76.35693 | 15947 ft | 426 kts | 72° |
| 2026-04-22 10:15 | 38.98622 | -76.32024 | 16578 ft | 431 kts | 71° |
| 2026-04-22 10:15 | 38.99479 | -76.28306 | 17213 ft | 436 kts | 71° |
| 2026-04-22 10:15 | 39.00345 | -76.24541 | 17766 ft | 442 kts | 71° |
| 2026-04-22 10:15 | 39.01223 | -76.20723 | 18374 ft | 446 kts | 70° |
| 2026-04-22 10:16 | 39.01807 | -76.18181 | 18723 ft | 449 kts | 70° |
| 2026-04-22 10:16 | 39.02690 | -76.14323 | 19292 ft | 451 kts | 70° |
| 2026-04-22 10:16 | 39.03579 | -76.10437 | 19833 ft | 454 kts | 70° |
| 2026-04-22 10:16 | 39.04342 | -76.06477 | 20402 ft | 459 kts | 77° |
| 2026-04-22 10:17 | 39.04766 | -76.02391 | 20972 ft | 462 kts | 82° |
| 2026-04-22 10:17 | 39.05002 | -75.98255 | 21521 ft | 465 kts | 84° |
| 2026-04-22 10:17 | 39.05149 | -75.94087 | 22047 ft | 468 kts | 84° |
| 2026-04-22 10:17 | 39.05272 | -75.89883 | 22583 ft | 471 kts | 84° |
| 2026-04-22 10:18 | 39.05401 | -75.85666 | 23107 ft | 473 kts | 84° |
| 2026-04-22 10:18 | 39.05586 | -75.81432 | 23610 ft | 473 kts | 78° |
| 2026-04-22 10:18 | 39.06327 | -75.77399 | 24032 ft | 466 kts | 64° |
| 2026-04-22 10:18 | 39.07825 | -75.73763 | 24397 ft | 456 kts | 46° |
| 2026-04-22 10:19 | 39.09996 | -75.70875 | 24782 ft | 445 kts | 32° |
| 2026-04-22 10:19 | 39.12454 | -75.68469 | 25179 ft | 443 kts | 29° |
| 2026-04-22 10:19 | 39.14973 | -75.66155 | 25568 ft | 445 kts | 28° |
| 2026-04-22 10:19 | 39.17509 | -75.63843 | 25885 ft | 449 kts | 28° |
| 2026-04-22 10:20 | 39.20071 | -75.61500 | 26256 ft | 451 kts | 28° |
| 2026-04-22 10:20 | 39.22630 | -75.59150 | 26630 ft | 452 kts | 28° |
| 2026-04-22 10:20 | 39.23410 | -75.58433 | 26754 ft | 453 kts | 29° |
| 2026-04-22 10:21 | 39.25863 | -75.56172 | 27111 ft | 455 kts | 29° |
| 2026-04-22 10:21 | 39.28440 | -75.53794 | 27469 ft | 455 kts | 29° |
| 2026-04-22 10:21 | 39.31009 | -75.51418 | 27972 ft | 453 kts | 29° |
| 2026-04-22 10:22 | 39.33569 | -75.49047 | 28474 ft | 451 kts | 29° |
| 2026-04-22 10:22 | 39.36117 | -75.46686 | 28859 ft | 452 kts | 28° |
| 2026-04-22 10:22 | 39.38682 | -75.44310 | 29224 ft | 453 kts | 28° |
| 2026-04-22 10:22 | 39.41234 | -75.41940 | 29716 ft | 450 kts | 28° |
| 2026-04-22 10:23 | 39.43774 | -75.39580 | 29977 ft | 450 kts | 28° |
| 2026-04-22 10:23 | 39.46316 | -75.37216 | 29708 ft | 448 kts | 28° |
| 2026-04-22 10:23 | 39.48848 | -75.34860 | 29442 ft | 449 kts | 28° |
| 2026-04-22 10:23 | 39.51396 | -75.32489 | 29149 ft | 451 kts | 28° |
| 2026-04-22 10:24 | 39.53948 | -75.30111 | 28881 ft | 452 kts | 29° |
| 2026-04-22 10:24 | 39.56471 | -75.27757 | 28610 ft | 454 kts | 29° |
| 2026-04-22 10:24 | 39.59045 | -75.25354 | 28342 ft | 456 kts | 29° |
| 2026-04-22 10:24 | 39.61628 | -75.22939 | 28185 ft | 458 kts | 29° |
| 2026-04-22 10:25 | 39.66798 | -75.18096 | 28178 ft | 458 kts | 29° |
| 2026-04-22 10:25 | 39.71968 | -75.13245 | 28177 ft | 458 kts | 29° |
| 2026-04-22 10:26 | 39.77135 | -75.08388 | 28176 ft | 458 kts | 29° |
| 2026-04-22 10:26 | 39.82272 | -75.03551 | 28178 ft | 457 kts | 29° |
| 2026-04-22 10:27 | 39.87425 | -74.98689 | 28192 ft | 457 kts | 29° |
| 2026-04-22 10:27 | 39.92579 | -74.93819 | 28211 ft | 457 kts | 29° |
| 2026-04-22 10:28 | 39.97735 | -74.88937 | 28190 ft | 459 kts | 29° |
| 2026-04-22 10:28 | 40.02914 | -74.84023 | 28197 ft | 459 kts | 29° |
| 2026-04-22 10:29 | 40.08057 | -74.79134 | 28174 ft | 460 kts | 29° |
| 2026-04-22 10:29 | 40.13170 | -74.74264 | 28169 ft | 460 kts | 29° |
| 2026-04-22 10:30 | 40.16390 | -74.71192 | 28166 ft | 460 kts | 29° |
| 2026-04-22 10:30 | 40.21571 | -74.66241 | 28167 ft | 460 kts | 30° |
| 2026-04-22 10:31 | 40.26752 | -74.61282 | 28169 ft | 460 kts | 30° |
| 2026-04-22 10:31 | 40.31892 | -74.56352 | 28185 ft | 460 kts | 30° |
| 2026-04-22 10:32 | 40.37064 | -74.51382 | 28173 ft | 458 kts | 30° |
| 2026-04-22 10:32 | 40.39582 | -74.48947 | 28191 ft | 438 kts | 29° |
| 2026-04-22 10:32 | 40.41981 | -74.46624 | 28190 ft | 420 kts | 29° |
| 2026-04-22 10:33 | 40.44290 | -74.44391 | 27961 ft | 408 kts | 28° |
| 2026-04-22 10:33 | 40.46574 | -74.42192 | 27494 ft | 403 kts | 28° |
| 2026-04-22 10:33 | 40.48803 | -74.40040 | 27282 ft | 392 kts | 28° |
| 2026-04-22 10:33 | 40.50972 | -74.37942 | 26976 ft | 384 kts | 28° |
| 2026-04-22 10:34 | 40.53129 | -74.35862 | 26425 ft | 383 kts | 28° |
| 2026-04-22 10:34 | 40.55275 | -74.33788 | 25978 ft | 381 kts | 28° |
| 2026-04-22 10:34 | 40.57378 | -74.31753 | 25487 ft | 379 kts | 28° |
| 2026-04-22 10:34 | 40.59504 | -74.29695 | 24997 ft | 378 kts | 27° |
| 2026-04-22 10:35 | 40.61614 | -74.27648 | 24519 ft | 376 kts | 28° |
| 2026-04-22 10:35 | 40.63718 | -74.25607 | 24043 ft | 375 kts | 28° |
| 2026-04-22 10:35 | 40.65818 | -74.23566 | 23561 ft | 373 kts | 28° |
| 2026-04-22 10:35 | 40.67896 | -74.21544 | 23071 ft | 370 kts | 28° |
| 2026-04-22 10:36 | 40.69960 | -74.19533 | 22676 ft | 365 kts | 28° |
| 2026-04-22 10:36 | 40.72000 | -74.17544 | 22184 ft | 363 kts | 28° |
| 2026-04-22 10:36 | 40.74030 | -74.15566 | 21704 ft | 360 kts | 28° |
| 2026-04-22 10:36 | 40.76013 | -74.13631 | 21205 ft | 359 kts | 29° |
| 2026-04-22 10:37 | 40.78022 | -74.11672 | 20415 ft | 359 kts | 29° |
| 2026-04-22 10:37 | 40.82138 | -74.07664 | 17812 ft | 380 kts | 31° |
| 2026-04-22 10:37 | 40.84239 | -74.05439 | 16193 ft | 396 kts | 43° |
| 2026-04-22 10:38 | 40.85770 | -74.02357 | 14702 ft | 410 kts | 65° |
| 2026-04-22 10:38 | 40.86418 | -73.98702 | 13285 ft | 410 kts | 84° |
| 2026-04-22 10:38 | 40.86106 | -73.95046 | 11806 ft | 389 kts | 105° |
| 2026-04-22 10:38 | 40.84922 | -73.91981 | 10332 ft | 365 kts | 129° |
| 2026-04-22 10:39 | 40.83049 | -73.89908 | 8886 ft | 341 kts | 154° |
| 2026-04-22 10:39 | 40.81019 | -73.88425 | 7437 ft | 330 kts | 154° |
| 2026-04-22 10:39 | 40.79136 | -73.86656 | 6279 ft | 335 kts | 146° |
| 2026-04-22 10:39 | 40.77197 | -73.85026 | 5620 ft | 324 kts | 159° |
| 2026-04-22 10:40 | 40.75347 | -73.83423 | 5388 ft | 318 kts | 139° |
| 2026-04-22 10:40 | 40.74258 | -73.80932 | 5180 ft | 315 kts | 108° |
| 2026-04-22 10:40 | 40.74232 | -73.78097 | 4975 ft | 308 kts | 76° |
| 2026-04-22 10:40 | 40.75245 | -73.75732 | 4662 ft | 289 kts | 41° |
| 2026-04-22 10:41 | 40.76916 | -73.74518 | 4538 ft | 265 kts | 7° |
| 2026-04-22 10:41 | 40.78643 | -73.74730 | 4336 ft | 243 kts | 331° |
| 2026-04-22 10:41 | 40.80134 | -73.75645 | 4085 ft | 236 kts | 331° |
| 2026-04-22 10:41 | 40.81584 | -73.76620 | 3784 ft | 233 kts | 328° |
| 2026-04-22 10:42 | 40.82990 | -73.77664 | 3477 ft | 232 kts | 326° |
| 2026-04-22 10:42 | 40.84356 | -73.78795 | 3241 ft | 230 kts | 322° |
| 2026-04-22 10:42 | 40.85564 | -73.80156 | 3091 ft | 227 kts | 306° |
| 2026-04-22 10:42 | 40.86203 | -73.82003 | 2922 ft | 221 kts | 276° |
| 2026-04-22 10:43 | 40.86111 | -73.83982 | 2742 ft | 222 kts | 258° |
| 2026-04-22 10:43 | 40.85805 | -73.86033 | 2564 ft | 223 kts | 263° |
| 2026-04-22 10:43 | 40.85652 | -73.88072 | 2437 ft | 223 kts | 265° |
| 2026-04-22 10:43 | 40.85532 | -73.90086 | 2347 ft | 223 kts | 266° |
| 2026-04-22 10:44 | 40.85344 | -73.92151 | 2235 ft | 223 kts | 261° |
| 2026-04-22 10:44 | 40.85007 | -73.94148 | 2057 ft | 223 kts | 252° |
| 2026-04-22 10:44 | 40.84334 | -73.95954 | 1858 ft | 221 kts | 240° |
| 2026-04-22 10:44 | 40.83167 | -73.97168 | 1737 ft | 214 kts | 195° |
| 2026-04-22 10:45 | 40.81723 | -73.96900 | 1537 ft | 219 kts | 153° |
| 2026-04-22 10:45 | 40.80747 | -73.95384 | 1312 ft | 223 kts | 110° |
| 2026-04-22 10:45 | 40.80311 | -73.93439 | 1254 ft | 213 kts | 106° |
| 2026-04-22 10:45 | 40.79945 | -73.91671 | 1162 ft | 187 kts | 106° |
| 2026-04-22 10:46 | 40.79451 | -73.90179 | 906 ft | 171 kts | 126° |
| 2026-04-22 10:46 | 40.78736 | -73.88979 | 547 ft | 165 kts | 130° |
| 2026-04-22 10:46 | 40.78157 | -73.87678 | 103 ft | 166 kts | 122° |
| 2026-04-22 10:46 | 40.77576 | -73.86480 | 15 ft | 122 kts | 122° |
| 2026-04-22 10:47 | 40.77293 | -73.85990 | 17 ft | 25 kts | 146° |
| 2026-04-22 10:47 | 40.77170 | -73.85881 | 17 ft | 16 kts | 145° |
| 2026-04-22 10:47 | 40.77106 | -73.85876 | 16 ft | 8 kts | 204° |
| 2026-04-22 10:47 | 40.77053 | -73.85911 | 14 ft | 9 kts | 210° |
| 2026-04-22 10:48 | 40.76996 | -73.85946 | 14 ft | 9 kts | 195° |
| 2026-04-22 10:48 | 40.76947 | -73.85955 | 16 ft | 5 kts | 165° |
| 2026-04-22 10:48 | 40.76923 | -73.85934 | 16 ft | 4 kts | 139° |
| 2026-04-22 10:48 | 40.76903 | -73.85910 | 17 ft | 1 kts | 133° |
| 2026-04-22 10:49 | 40.76905 | -73.85911 | 16 ft | 1 kts | 132° |
| 2026-04-22 10:49 | 40.76905 | -73.85912 | 16 ft | 0 kts | 132° |
| 2026-04-22 10:49 | 40.76885 | -73.85883 | 17 ft | 0 kts | 133° |